createdAt,value
2018-09-20T00:00:55.907Z,13.20
2018-09-20T00:02:48.550Z,12.20
2018-09-20T00:03:48.238Z,10.10
2018-09-20T00:05:43.182Z,12.20
2018-09-20T00:06:41.617Z,11.90
2018-09-20T00:08:34.850Z,14.90
2018-09-20T00:09:34.777Z,13.70
2018-09-20T00:11:27.600Z,15.20
2018-09-20T00:12:27.369Z,15.80
2018-09-20T00:14:22.124Z,12.80
2018-09-20T00:15:20.727Z,14.60
2018-09-20T00:17:14.387Z,15.70
2018-09-20T00:18:14.097Z,13.80
2018-09-20T00:20:07.506Z,17.80
2018-09-20T00:21:07.714Z,13.50
2018-09-20T00:23:00.844Z,11.80
2018-09-20T00:24:00.865Z,12.80
2018-09-20T00:25:54.279Z,13.80
2018-09-20T00:26:54.488Z,13.60
2018-09-20T00:28:47.139Z,10.80
2018-09-20T00:29:47.085Z,12.40
2018-09-20T00:31:41.735Z,11.80
2018-09-20T00:32:41.449Z,10.50
2018-09-20T00:34:35.076Z,12.80
2018-09-20T00:35:34.812Z,13.20
2018-09-20T00:37:28.126Z,15.00
2018-09-20T00:38:27.689Z,12.30
2018-09-20T00:40:21.365Z,12.40
2018-09-20T00:41:21.057Z,12.90
2018-09-20T00:43:15.753Z,12.40
2018-09-20T00:44:15.451Z,12.40
2018-09-20T00:46:09.143Z,16.80
2018-09-20T00:47:09.116Z,11.10
2018-09-20T00:49:02.559Z,12.40
2018-09-20T00:50:01.716Z,13.00
2018-09-20T00:51:56.435Z,11.90
2018-09-20T00:52:56.321Z,10.90
2018-09-20T00:54:49.999Z,10.90
2018-09-20T00:55:49.468Z,9.20
2018-09-20T00:57:43.619Z,14.50
2018-09-20T00:58:42.791Z,14.10
2018-09-20T01:00:38.977Z,13.40
2018-09-20T01:01:38.675Z,11.20
2018-09-20T01:03:32.346Z,11.30
2018-09-20T01:04:32.023Z,12.30
2018-09-20T01:06:25.728Z,13.40
2018-09-20T01:07:25.664Z,14.00
2018-09-20T01:09:19.111Z,11.30
2018-09-20T01:10:19.296Z,11.00
2018-09-20T01:12:12.179Z,15.20
2018-09-20T01:13:12.133Z,13.70
2018-09-20T01:15:05.194Z,14.10
2018-09-20T01:16:05.592Z,13.40
2018-09-20T01:17:58.608Z,12.70
2018-09-20T01:18:58.378Z,15.00
2018-09-20T01:20:52.498Z,11.90
2018-09-20T01:21:51.759Z,13.10
2018-09-20T01:23:44.881Z,11.50
2018-09-20T01:24:44.675Z,9.20
2018-09-20T01:26:38.196Z,16.10
2018-09-20T01:27:38.003Z,11.50
2018-09-20T01:29:31.487Z,13.40
2018-09-20T01:30:31.368Z,12.20
2018-09-20T01:32:24.760Z,14.50
2018-09-20T01:33:25.309Z,16.70
2018-09-20T01:35:18.489Z,13.30
2018-09-20T01:36:18.099Z,12.20
2018-09-20T01:38:12.304Z,18.00
2018-09-20T01:39:11.454Z,13.10
2018-09-20T01:41:05.102Z,12.90
2018-09-20T01:42:04.842Z,9.50
2018-09-20T01:43:58.238Z,16.50
2018-09-20T01:44:58.217Z,13.80
2018-09-20T01:46:52.456Z,14.30
2018-09-20T01:47:52.154Z,13.30
2018-09-20T01:49:46.420Z,12.30
2018-09-20T01:50:44.998Z,11.90
2018-09-20T01:52:38.618Z,17.80
2018-09-20T01:53:38.373Z,14.50
2018-09-20T01:55:32.028Z,12.20
2018-09-20T01:56:31.735Z,12.50
2018-09-20T01:58:25.480Z,10.40
2018-09-20T01:59:24.660Z,11.70
2018-09-20T02:01:18.055Z,12.60
2018-09-20T02:02:17.986Z,13.20
2018-09-20T02:04:11.155Z,15.70
2018-09-20T02:05:10.851Z,14.80
2018-09-20T02:07:04.499Z,15.80
2018-09-20T02:08:04.237Z,11.70
2018-09-20T02:09:57.618Z,13.00
2018-09-20T02:10:57.618Z,14.20
2018-09-20T02:12:51.218Z,16.20
2018-09-20T02:13:50.976Z,12.00
2018-09-20T02:15:44.093Z,13.00
2018-09-20T02:16:44.054Z,13.00
2018-09-20T02:18:37.475Z,10.60
2018-09-20T02:19:37.208Z,12.30
2018-09-20T02:21:30.664Z,15.80
2018-09-20T02:22:30.099Z,12.30
2018-09-20T02:24:24.773Z,14.10
2018-09-20T02:25:24.717Z,17.00
2018-09-20T02:27:18.067Z,18.50
2018-09-20T02:28:17.837Z,15.10
2018-09-20T02:30:11.504Z,15.60
2018-09-20T02:31:11.205Z,14.60
2018-09-20T02:33:04.396Z,16.10
2018-09-20T02:34:04.078Z,14.20
2018-09-20T02:35:58.552Z,15.50
2018-09-20T02:36:58.458Z,14.10
2018-09-20T02:38:52.119Z,14.20
2018-09-20T02:39:51.830Z,14.60
2018-09-20T02:41:45.487Z,13.00
2018-09-20T02:42:45.173Z,15.10
2018-09-20T02:44:38.789Z,15.10
2018-09-20T02:45:38.593Z,11.20
2018-09-20T02:47:31.971Z,17.70
2018-09-20T02:48:32.139Z,14.60
2018-09-20T02:50:25.522Z,11.90
2018-09-20T02:51:25.284Z,11.90
2018-09-20T02:53:18.186Z,17.00
2018-09-20T02:54:18.156Z,12.40
2018-09-20T02:56:11.283Z,13.00
2018-09-20T02:57:11.035Z,13.80
2018-09-20T02:59:04.690Z,15.50
2018-09-20T03:00:04.392Z,10.60
2018-09-20T03:01:58.144Z,18.30
2018-09-20T03:02:57.759Z,11.30
2018-09-20T03:04:51.376Z,13.20
2018-09-20T03:05:51.119Z,11.80
2018-09-20T03:07:44.284Z,19.00
2018-09-20T03:08:43.986Z,10.80
2018-09-20T03:10:37.133Z,10.30
2018-09-20T03:11:36.902Z,11.10
2018-09-20T03:13:30.305Z,13.50
2018-09-20T03:14:30.238Z,13.50
2018-09-20T03:16:24.648Z,14.60
2018-09-20T03:17:24.624Z,13.00
2018-09-20T03:19:18.083Z,15.20
2018-09-20T03:20:18.266Z,13.10
2018-09-20T03:22:10.891Z,14.90
2018-09-20T03:23:10.876Z,16.40
2018-09-20T03:25:04.568Z,14.70
2018-09-20T03:26:04.486Z,10.30
2018-09-20T03:27:57.915Z,13.30
2018-09-20T03:28:57.599Z,14.40
2018-09-20T03:30:51.283Z,12.90
2018-09-20T03:31:51.308Z,16.80
2018-09-20T03:33:44.412Z,15.10
2018-09-20T03:34:44.519Z,13.50
2018-09-20T03:36:37.289Z,14.90
2018-09-20T03:37:37.243Z,13.50
2018-09-20T03:39:30.858Z,14.00
2018-09-20T03:40:30.577Z,15.90
2018-09-20T03:42:23.660Z,13.70
2018-09-20T03:43:23.452Z,11.90
2018-09-20T03:45:16.554Z,14.70
2018-09-20T03:46:16.394Z,13.80
2018-09-20T03:48:10.006Z,13.20
2018-09-20T03:49:09.726Z,14.30
2018-09-20T03:51:04.001Z,15.00
2018-09-20T03:52:03.398Z,13.30
2018-09-20T03:53:56.651Z,15.30
2018-09-20T03:54:56.427Z,12.70
2018-09-20T03:56:50.059Z,15.20
2018-09-20T03:57:49.790Z,15.00
2018-09-20T03:59:43.495Z,16.40
2018-09-20T04:00:43.221Z,16.00
2018-09-20T04:02:36.848Z,15.70
2018-09-20T04:03:36.587Z,18.10
2018-09-20T04:05:30.238Z,18.10
2018-09-20T04:06:29.993Z,15.40
2018-09-20T04:08:24.451Z,14.70
2018-09-20T04:09:23.317Z,13.90
2018-09-20T04:11:17.528Z,13.70
2018-09-20T04:12:16.736Z,14.50
2018-09-20T04:14:10.169Z,13.50
2018-09-20T04:15:09.838Z,12.90
2018-09-20T04:17:03.247Z,13.70
2018-09-20T04:18:02.996Z,13.80
2018-09-20T04:19:55.850Z,13.00
2018-09-20T04:20:55.859Z,15.10
2018-09-20T04:22:49.708Z,13.20
2018-09-20T04:23:49.637Z,16.80
2018-09-20T04:25:42.582Z,16.50
2018-09-20T04:26:42.572Z,15.50
2018-09-20T04:28:36.929Z,15.20
2018-09-20T04:29:36.901Z,17.40
2018-09-20T04:31:29.956Z,13.80
2018-09-20T04:32:29.817Z,13.40
2018-09-20T04:34:23.037Z,18.80
2018-09-20T04:35:22.788Z,18.50
2018-09-20T04:37:15.613Z,13.40
2018-09-20T04:38:15.631Z,15.20
2018-09-20T04:40:09.235Z,14.60
2018-09-20T04:41:08.944Z,13.10
2018-09-20T04:43:02.394Z,15.20
2018-09-20T04:44:02.315Z,14.70
2018-09-20T04:45:56.086Z,17.30
2018-09-20T04:46:55.679Z,13.90
2018-09-20T04:48:49.410Z,18.00
2018-09-20T04:49:49.079Z,12.50
2018-09-20T04:51:42.697Z,13.90
2018-09-20T04:52:42.729Z,13.00
2018-09-20T04:54:35.617Z,16.60
2018-09-20T04:55:35.613Z,16.90
2018-09-20T04:57:28.971Z,12.20
2018-09-20T04:58:28.157Z,18.10
2018-09-20T05:00:22.689Z,15.40
2018-09-20T05:01:21.028Z,14.60
2018-09-20T05:03:14.591Z,17.20
2018-09-20T05:04:14.990Z,17.80
2018-09-20T05:06:08.015Z,18.40
2018-09-20T05:07:07.803Z,18.60
2018-09-20T05:09:01.517Z,15.20
2018-09-20T05:10:01.176Z,13.10
2018-09-20T05:11:54.536Z,16.80
2018-09-20T05:12:54.515Z,17.20
2018-09-20T05:14:47.930Z,18.40
2018-09-20T05:15:48.468Z,14.80
2018-09-20T05:17:42.789Z,20.20
2018-09-20T05:18:42.743Z,15.90
2018-09-20T05:20:36.057Z,14.80
2018-09-20T05:21:35.738Z,14.90
2018-09-20T05:23:29.522Z,17.70
2018-09-20T05:24:29.021Z,18.80
2018-09-20T05:26:23.817Z,17.60
2018-09-20T05:27:23.798Z,19.50
2018-09-20T05:29:16.845Z,22.90
2018-09-20T05:30:17.178Z,23.30
2018-09-20T05:32:10.520Z,30.90
2018-09-20T05:33:10.238Z,18.30
2018-09-20T05:35:03.779Z,26.00
2018-09-20T05:36:03.854Z,18.50
2018-09-20T05:37:56.752Z,17.50
2018-09-20T05:38:56.657Z,25.70
2018-09-20T05:40:50.553Z,17.00
2018-09-20T05:41:49.656Z,20.80
2018-09-20T05:43:45.655Z,25.50
2018-09-20T05:44:45.452Z,19.20
2018-09-20T05:46:42.730Z,17.60
2018-09-20T05:47:41.405Z,18.50
2018-09-20T05:49:34.817Z,25.40
2018-09-20T05:50:34.754Z,17.10
2018-09-20T05:52:28.117Z,21.80
2018-09-20T05:53:27.804Z,22.60
2018-09-20T05:55:23.978Z,20.10
2018-09-20T05:56:22.516Z,21.80
2018-09-20T05:58:15.910Z,16.50
2018-09-20T05:59:15.564Z,15.60
2018-09-20T06:01:10.312Z,17.30
2018-09-20T06:02:09.866Z,18.70
2018-09-20T06:04:03.440Z,19.30
2018-09-20T06:05:03.297Z,14.50
2018-09-20T06:06:56.132Z,18.00
2018-09-20T06:07:56.152Z,14.70
2018-09-20T06:09:49.504Z,16.60
2018-09-20T06:10:49.477Z,15.30
2018-09-20T06:12:42.946Z,13.50
2018-09-20T06:13:42.856Z,15.30
2018-09-20T06:15:36.226Z,13.40
2018-09-20T06:16:36.207Z,16.60
2018-09-20T06:18:29.645Z,16.90
2018-09-20T06:19:29.586Z,18.60
2018-09-20T06:21:24.028Z,15.70
2018-09-20T06:22:22.955Z,20.50
2018-09-20T06:24:16.662Z,17.00
2018-09-20T06:25:16.355Z,13.60
2018-09-20T06:27:09.975Z,14.40
2018-09-20T06:28:09.687Z,17.70
2018-09-20T06:30:03.715Z,15.70
2018-09-20T06:31:03.409Z,20.50
2018-09-20T06:32:56.303Z,15.50
2018-09-20T06:33:56.297Z,14.60
2018-09-20T06:35:49.214Z,12.40
2018-09-20T06:36:49.295Z,16.10
2018-09-20T06:38:42.591Z,14.20
2018-09-20T06:39:42.606Z,11.50
2018-09-20T06:41:36.541Z,13.80
2018-09-20T06:42:36.289Z,13.00
2018-09-20T06:44:29.306Z,13.80
2018-09-20T06:45:29.101Z,13.40
2018-09-20T06:47:22.460Z,14.20
2018-09-20T06:48:22.426Z,17.30
2018-09-20T06:50:16.708Z,12.30
2018-09-20T06:51:17.684Z,13.70
2018-09-20T06:53:10.243Z,17.40
2018-09-20T06:54:10.028Z,14.60
2018-09-20T06:56:03.527Z,12.90
2018-09-20T06:57:03.417Z,13.90
2018-09-20T06:58:56.840Z,12.00
2018-09-20T06:59:56.791Z,11.50
2018-09-20T07:01:49.708Z,15.70
2018-09-20T07:02:49.699Z,13.20
2018-09-20T07:04:42.565Z,14.10
2018-09-20T07:05:42.566Z,13.50
2018-09-20T07:07:36.082Z,14.60
2018-09-20T07:08:35.930Z,12.30
2018-09-20T07:10:28.907Z,9.50
2018-09-20T07:11:29.495Z,8.60
2018-09-20T07:13:22.787Z,9.20
2018-09-20T07:14:22.776Z,8.90
2018-09-20T07:16:18.465Z,17.50
2018-09-20T07:17:15.670Z,14.00
2018-09-20T07:19:09.232Z,14.90
2018-09-20T07:20:09.053Z,11.60
2018-09-20T07:22:02.463Z,10.80
2018-09-20T07:23:02.426Z,13.60
2018-09-20T07:25:46.471Z,12.20
2018-09-20T07:26:46.533Z,10.60
2018-09-20T07:28:39.904Z,12.10
2018-09-20T07:29:39.797Z,10.20
2018-09-20T07:31:32.692Z,12.10
2018-09-20T07:32:32.701Z,15.70
2018-09-20T07:34:26.083Z,13.80
2018-09-20T07:35:26.071Z,13.30
2018-09-20T07:37:19.063Z,15.00
2018-09-20T07:38:19.062Z,11.30
2018-09-20T07:40:12.055Z,13.10
2018-09-20T07:41:11.947Z,9.60
2018-09-20T07:43:06.632Z,10.90
2018-09-20T07:44:05.334Z,12.10
2018-09-20T07:45:58.745Z,13.20
2018-09-20T07:46:58.719Z,11.30
2018-09-20T07:48:51.764Z,11.60
2018-09-20T07:49:51.734Z,9.60
2018-09-20T07:51:45.128Z,12.90
2018-09-20T07:52:45.118Z,12.50
2018-09-20T07:54:38.543Z,10.70
2018-09-20T07:55:38.514Z,11.20
2018-09-20T07:57:31.523Z,10.60
2018-09-20T07:58:31.412Z,10.20
2018-09-20T08:00:24.414Z,10.20
2018-09-20T08:01:24.392Z,10.20
2018-09-20T08:03:17.698Z,10.80
2018-09-20T08:04:17.673Z,9.40
2018-09-20T08:06:11.153Z,12.10
2018-09-20T08:07:12.608Z,13.80
2018-09-20T08:09:04.078Z,13.10
2018-09-20T08:10:04.062Z,8.50
2018-09-20T08:11:57.468Z,9.80
2018-09-20T08:12:57.496Z,14.60
2018-09-20T08:15:42.549Z,11.90
2018-09-20T08:16:41.528Z,12.40
2018-09-20T08:18:34.857Z,11.70
2018-09-20T08:19:34.881Z,10.90
2018-09-20T08:21:27.771Z,9.40
2018-09-20T08:22:27.733Z,7.70
2018-09-20T08:24:21.162Z,12.20
2018-09-20T08:25:21.115Z,10.10
2018-09-20T08:27:14.025Z,16.60
2018-09-20T08:28:14.001Z,17.20
2018-09-20T08:30:06.953Z,11.90
2018-09-20T08:31:06.903Z,12.40
2018-09-20T08:33:00.360Z,15.60
2018-09-20T08:34:00.289Z,13.90
2018-09-20T08:35:53.692Z,14.00
2018-09-20T08:36:53.670Z,12.00
2018-09-20T08:38:46.570Z,12.40
2018-09-20T08:39:46.559Z,13.80
2018-09-20T08:41:43.981Z,7.00
2018-09-20T08:42:39.593Z,12.20
2018-09-20T08:44:32.890Z,8.70
2018-09-20T08:45:32.889Z,9.80
2018-09-20T08:47:26.307Z,10.40
2018-09-20T08:48:26.272Z,11.30
2018-09-20T08:50:19.958Z,10.30
2018-09-20T08:51:19.665Z,10.00
2018-09-20T08:53:12.702Z,10.90
2018-09-20T08:54:12.583Z,9.70
2018-09-20T08:56:05.980Z,10.50
2018-09-20T08:57:06.011Z,13.20
2018-09-20T08:58:58.852Z,12.20
2018-09-20T08:59:58.862Z,11.30
2018-09-20T09:01:51.765Z,12.00
2018-09-20T09:02:51.770Z,9.50
2018-09-20T09:04:45.170Z,10.50
2018-09-20T09:05:46.039Z,9.10
2018-09-20T09:07:38.544Z,10.40
2018-09-20T09:08:38.574Z,9.20
2018-09-20T09:10:31.421Z,11.50
2018-09-20T09:11:31.435Z,12.40
2018-09-20T09:13:24.810Z,10.00
2018-09-20T09:14:24.797Z,8.80
2018-09-20T09:16:17.705Z,12.70
2018-09-20T09:17:17.692Z,13.10
2018-09-20T09:19:11.366Z,12.20
2018-09-20T09:20:11.067Z,10.70
2018-09-20T09:22:04.538Z,13.80
2018-09-20T09:23:04.465Z,12.50
2018-09-20T09:24:57.356Z,9.00
2018-09-20T09:25:57.343Z,14.00
2018-09-20T09:27:50.750Z,9.90
2018-09-20T09:28:50.834Z,11.30
2018-09-20T09:30:43.767Z,8.40
2018-09-20T09:31:43.619Z,13.10
2018-09-20T09:33:37.391Z,9.90
2018-09-20T09:34:37.072Z,8.10
2018-09-20T09:36:30.416Z,11.70
2018-09-20T09:37:30.413Z,10.40
2018-09-20T09:39:23.816Z,13.20
2018-09-20T09:40:23.795Z,11.80
2018-09-20T09:42:16.738Z,10.40
2018-09-20T09:43:16.750Z,10.80
2018-09-20T09:45:09.608Z,10.50
2018-09-20T09:46:09.584Z,8.10
2018-09-20T09:48:03.081Z,12.30
2018-09-20T09:49:02.988Z,14.10
2018-09-20T09:50:56.937Z,10.50
2018-09-20T09:51:56.921Z,14.00
2018-09-20T09:53:49.842Z,12.70
2018-09-20T09:54:49.869Z,7.90
2018-09-20T09:56:43.273Z,13.00
2018-09-20T09:57:43.206Z,10.90
2018-09-20T09:59:36.180Z,9.60
2018-09-20T10:00:36.160Z,8.80
2018-09-20T10:02:29.500Z,10.50
2018-09-20T10:03:29.483Z,9.50
2018-09-20T10:05:22.472Z,13.90
2018-09-20T10:06:22.382Z,9.70
2018-09-20T10:08:15.382Z,12.70
2018-09-20T10:09:15.332Z,13.80
2018-09-20T10:11:08.729Z,11.10
2018-09-20T10:12:08.727Z,11.30
2018-09-20T10:14:01.621Z,9.30
2018-09-20T10:15:01.595Z,7.20
2018-09-20T10:16:55.086Z,7.70
2018-09-20T10:17:54.493Z,7.80
2018-09-20T10:19:47.927Z,12.50
2018-09-20T10:20:47.898Z,14.40
2018-09-20T10:22:41.314Z,11.90
2018-09-20T10:23:41.271Z,10.50
2018-09-20T10:25:34.870Z,11.10
2018-09-20T10:26:34.731Z,9.90
2018-09-20T10:28:27.632Z,11.10
2018-09-20T10:29:27.648Z,12.30
2018-09-20T10:31:20.625Z,10.30
2018-09-20T10:32:20.553Z,13.50
2018-09-20T10:34:13.520Z,11.40
2018-09-20T10:35:13.413Z,12.60
2018-09-20T10:37:06.905Z,12.20
2018-09-20T10:38:06.835Z,13.00
2018-09-20T10:39:59.731Z,11.70
2018-09-20T10:41:00.251Z,11.60
2018-09-20T10:42:53.103Z,17.20
2018-09-20T10:43:53.091Z,11.40
2018-09-20T10:45:46.133Z,9.60
2018-09-20T10:46:46.023Z,10.70
2018-09-20T10:48:39.418Z,8.70
2018-09-20T10:49:39.409Z,9.60
2018-09-20T10:51:32.809Z,10.70
2018-09-20T10:52:32.797Z,12.50
2018-09-20T10:54:25.770Z,9.50
2018-09-20T10:55:25.742Z,9.50
2018-09-20T10:57:18.681Z,13.10
2018-09-20T10:58:18.581Z,10.80
2018-09-20T11:00:11.493Z,11.00
2018-09-20T11:01:11.477Z,8.20
2018-09-20T11:03:04.434Z,8.10
2018-09-20T11:04:04.361Z,10.90
2018-09-20T11:05:57.286Z,9.50
2018-09-20T11:06:57.258Z,9.10
2018-09-20T11:08:50.680Z,12.30
2018-09-20T11:09:50.653Z,9.30
2018-09-20T11:11:44.049Z,8.40
2018-09-20T11:12:44.051Z,9.00
2018-09-20T11:14:37.187Z,8.10
2018-09-20T11:15:36.955Z,8.90
2018-09-20T11:17:29.856Z,13.40
2018-09-20T11:18:29.821Z,8.60
2018-09-20T11:20:23.228Z,11.10
2018-09-20T11:21:23.213Z,12.70
2018-09-20T11:23:16.220Z,9.00
2018-09-20T11:24:17.147Z,9.80
2018-09-20T11:26:09.617Z,7.90
2018-09-20T11:27:09.604Z,6.50
2018-09-20T11:29:03.010Z,9.10
2018-09-20T11:30:02.972Z,8.40
2018-09-20T11:31:55.991Z,6.30
2018-09-20T11:32:55.866Z,6.70
2018-09-20T11:34:49.274Z,8.90
2018-09-20T11:35:49.264Z,7.70
2018-09-20T11:37:42.655Z,6.30
2018-09-20T11:38:42.641Z,10.70
2018-09-20T11:40:35.674Z,8.10
2018-09-20T11:41:35.535Z,7.10
2018-09-20T11:43:28.447Z,8.40
2018-09-20T11:44:28.450Z,11.50
2018-09-20T11:46:21.415Z,8.90
2018-09-20T11:47:21.335Z,8.30
2018-09-20T11:49:14.760Z,9.20
2018-09-20T11:50:14.722Z,11.10
2018-09-20T11:52:08.178Z,7.00
2018-09-20T11:53:08.101Z,7.60
2018-09-20T11:55:01.518Z,7.00
2018-09-20T11:56:01.497Z,10.00
2018-09-20T11:57:54.908Z,8.60
2018-09-20T11:58:54.885Z,7.50
2018-09-20T12:00:48.319Z,8.90
2018-09-20T12:01:48.300Z,7.90
2018-09-20T12:03:41.270Z,8.10
2018-09-20T12:04:41.181Z,8.80
2018-09-20T12:06:34.554Z,10.60
2018-09-20T12:07:34.542Z,10.90
2018-09-20T12:09:27.956Z,8.00
2018-09-20T12:10:27.943Z,7.80
2018-09-20T12:12:21.431Z,9.40
2018-09-20T12:13:21.326Z,5.90
2018-09-20T12:15:14.794Z,8.50
2018-09-20T12:16:14.740Z,9.20
2018-09-20T12:18:08.227Z,7.00
2018-09-20T12:19:08.172Z,6.50
2018-09-20T12:21:01.110Z,8.70
2018-09-20T12:22:01.113Z,10.20
2018-09-20T12:23:54.468Z,9.40
2018-09-20T12:24:54.463Z,7.60
2018-09-20T12:26:47.964Z,8.40
2018-09-20T12:27:47.857Z,6.90
2018-09-20T12:29:40.766Z,11.40
2018-09-20T12:30:40.744Z,10.10
2018-09-20T12:32:33.793Z,11.40
2018-09-20T12:33:33.740Z,8.90
2018-09-20T12:35:26.829Z,7.40
2018-09-20T12:36:26.623Z,11.30
2018-09-20T12:38:20.094Z,8.70
2018-09-20T12:39:20.000Z,7.30
2018-09-20T12:41:13.484Z,9.80
2018-09-20T12:42:13.423Z,16.20
2018-09-20T12:44:06.390Z,11.40
2018-09-20T12:45:06.282Z,8.60
2018-09-20T12:46:59.740Z,7.10
2018-09-20T12:47:59.673Z,10.50
2018-09-20T12:49:53.113Z,8.70
2018-09-20T12:50:53.071Z,8.90
2018-09-20T12:52:46.617Z,8.30
2018-09-20T12:53:46.583Z,7.70
2018-09-20T12:55:40.133Z,9.30
2018-09-20T12:56:39.991Z,7.80
2018-09-20T12:58:33.435Z,8.90
2018-09-20T12:59:33.380Z,9.60
2018-09-20T13:01:26.763Z,6.40
2018-09-20T13:02:26.757Z,8.10
2018-09-20T13:04:19.660Z,8.30
2018-09-20T13:05:19.658Z,6.70
2018-09-20T13:07:13.035Z,6.80
2018-09-20T13:08:13.022Z,8.80
2018-09-20T13:10:06.433Z,9.50
2018-09-20T13:11:06.420Z,12.70
2018-09-20T13:13:00.968Z,8.80
2018-09-20T13:14:00.862Z,5.60
2018-09-20T13:15:53.390Z,7.30
2018-09-20T13:16:53.421Z,7.10
2018-09-20T13:18:46.151Z,9.00
2018-09-20T13:19:46.160Z,9.20
2018-09-20T13:21:39.252Z,8.20
2018-09-20T13:22:39.129Z,8.10
2018-09-20T13:24:32.063Z,9.70
2018-09-20T13:25:32.844Z,8.30
2018-09-20T13:27:24.949Z,7.00
2018-09-20T13:28:24.925Z,10.50
2018-09-20T13:30:18.356Z,9.00
2018-09-20T13:31:18.347Z,7.90
2018-09-20T13:33:11.262Z,11.10
2018-09-20T13:34:11.253Z,8.10
2018-09-20T13:36:04.658Z,9.10
2018-09-20T13:37:04.914Z,7.80
2018-09-20T13:38:58.081Z,6.90
2018-09-20T13:39:57.545Z,14.40
2018-09-20T13:41:50.967Z,9.40
2018-09-20T13:42:50.951Z,7.00
2018-09-20T13:44:44.900Z,8.70
2018-09-20T13:45:44.352Z,6.30
2018-09-20T13:47:37.319Z,9.50
2018-09-20T13:48:37.261Z,10.60
2018-09-20T13:50:30.644Z,12.10
2018-09-20T13:51:30.620Z,7.70
2018-09-20T13:53:23.640Z,10.00
2018-09-20T13:54:23.514Z,11.70
2018-09-20T13:56:16.549Z,9.20
2018-09-20T13:57:17.152Z,10.00
2018-09-20T13:59:09.329Z,11.30
2018-09-20T14:00:09.347Z,11.00
2018-09-20T14:02:02.344Z,6.50
2018-09-20T14:03:02.182Z,4.90
2018-09-20T14:04:55.114Z,7.50
2018-09-20T14:05:55.120Z,8.00
2018-09-20T14:07:48.535Z,7.20
2018-09-20T14:08:48.487Z,6.70
2018-09-20T14:10:41.435Z,7.90
2018-09-20T14:11:41.915Z,7.40
2018-09-20T14:13:34.318Z,8.70
2018-09-20T14:14:34.294Z,6.10
2018-09-20T14:16:27.189Z,7.20
2018-09-20T14:17:27.250Z,6.10
2018-09-20T14:19:20.575Z,9.30
2018-09-20T14:20:20.550Z,5.90
2018-09-20T14:22:13.973Z,6.70
2018-09-20T14:23:13.459Z,6.20
2018-09-20T14:25:06.895Z,7.60
2018-09-20T14:26:06.827Z,9.50
2018-09-20T14:28:00.237Z,8.70
2018-09-20T14:29:00.223Z,7.70
2018-09-20T14:30:54.218Z,10.70
2018-09-20T14:31:53.154Z,6.60
2018-09-20T14:33:46.077Z,9.10
2018-09-20T14:34:46.045Z,8.30
2018-09-20T14:36:39.502Z,6.60
2018-09-20T14:37:39.434Z,7.50
2018-09-20T14:39:32.874Z,6.80
2018-09-20T14:40:32.833Z,7.60
2018-09-20T14:42:25.732Z,6.70
2018-09-20T14:43:25.724Z,4.90
2018-09-20T14:45:19.201Z,6.60
2018-09-20T14:46:18.627Z,9.90
2018-09-20T14:48:11.527Z,6.90
2018-09-20T14:49:11.508Z,6.90
2018-09-20T14:51:04.413Z,5.60
2018-09-20T14:52:04.401Z,7.10
2018-09-20T14:53:57.504Z,6.10
2018-09-20T14:54:57.286Z,7.20
2018-09-20T14:56:50.219Z,6.20
2018-09-20T14:57:50.206Z,10.00
2018-09-20T14:59:43.165Z,5.50
2018-09-20T15:00:43.093Z,6.10
2018-09-20T15:02:36.594Z,5.20
2018-09-20T15:03:35.986Z,6.60
2018-09-20T15:05:29.391Z,8.70
2018-09-20T15:06:29.384Z,8.20
2018-09-20T15:08:22.361Z,5.40
2018-09-20T15:09:22.269Z,6.60
2018-09-20T15:11:15.776Z,9.30
2018-09-20T15:12:15.661Z,8.20
2018-09-20T15:14:08.612Z,7.60
2018-09-20T15:15:08.627Z,7.00
2018-09-20T15:17:01.603Z,5.40
2018-09-20T15:18:02.006Z,5.50
2018-09-20T15:19:54.468Z,7.90
2018-09-20T15:20:54.332Z,4.70
2018-09-20T15:22:47.726Z,7.90
2018-09-20T15:23:47.728Z,7.00
2018-09-20T15:25:41.144Z,9.80
2018-09-20T15:26:41.120Z,8.30
2018-09-20T15:28:34.635Z,5.60
2018-09-20T15:29:34.505Z,6.00
2018-09-20T15:31:27.495Z,5.90
2018-09-20T15:32:27.410Z,6.60
2018-09-20T15:34:20.899Z,4.40
2018-09-20T15:35:20.784Z,4.80
2018-09-20T15:37:13.697Z,5.40
2018-09-20T15:38:13.682Z,6.40
2018-09-20T15:40:07.651Z,9.40
2018-09-20T15:41:07.070Z,8.30
2018-09-20T15:43:01.998Z,9.10
2018-09-20T15:44:00.098Z,6.90
2018-09-20T15:45:53.853Z,8.10
2018-09-20T15:46:53.345Z,4.30
2018-09-20T15:48:48.509Z,8.20
2018-09-20T15:49:47.315Z,8.40
2018-09-20T15:51:40.809Z,6.30
2018-09-20T15:52:40.676Z,6.50
2018-09-20T15:54:34.080Z,6.30
2018-09-20T15:55:34.074Z,9.40
2018-09-20T15:58:18.604Z,8.30
2018-09-20T15:59:18.549Z,7.00
2018-09-20T16:01:12.002Z,8.20
2018-09-20T16:02:11.470Z,5.70
2018-09-20T16:04:05.014Z,5.40
2018-09-20T16:05:04.881Z,9.90
2018-09-20T16:06:58.242Z,4.60
2018-09-20T16:07:58.239Z,5.60
2018-09-20T16:09:51.189Z,6.70
2018-09-20T16:10:51.134Z,9.00
2018-09-20T16:12:44.095Z,8.00
2018-09-20T16:13:44.090Z,7.40
2018-09-20T16:15:38.490Z,5.30
2018-09-20T16:16:38.448Z,7.30
2018-09-20T16:18:31.888Z,5.20
2018-09-20T16:19:31.847Z,6.60
2018-09-20T16:21:24.743Z,7.80
2018-09-20T16:22:24.725Z,6.30
2018-09-20T16:24:18.700Z,4.50
2018-09-20T16:25:18.690Z,4.50
2018-09-20T16:27:12.145Z,7.00
2018-09-20T16:28:11.565Z,6.10
2018-09-20T16:30:04.963Z,4.90
2018-09-20T16:31:04.840Z,5.10
2018-09-20T16:32:58.239Z,6.60
2018-09-20T16:33:58.229Z,6.20
2018-09-20T16:35:51.648Z,7.20
2018-09-20T16:36:51.627Z,5.50
2018-09-20T16:38:44.724Z,6.10
2018-09-20T16:39:44.524Z,5.10
2018-09-20T16:41:37.496Z,6.50
2018-09-20T16:42:37.409Z,5.40
2018-09-20T16:44:30.814Z,11.20
2018-09-20T16:45:30.801Z,8.60
2018-09-20T16:47:24.132Z,4.90
2018-09-20T16:48:24.114Z,5.70
2018-09-20T16:50:17.528Z,12.50
2018-09-20T16:51:17.511Z,9.40
2018-09-20T16:53:10.481Z,7.80
2018-09-20T16:54:10.425Z,6.10
2018-09-20T16:56:03.306Z,6.80
2018-09-20T16:57:03.326Z,4.90
2018-09-20T16:58:56.686Z,6.40
2018-09-20T16:59:56.681Z,5.80
2018-09-20T17:01:49.580Z,8.40
2018-09-20T17:02:49.568Z,7.40
2018-09-20T17:04:42.965Z,6.90
2018-09-20T17:05:42.960Z,8.90
2018-09-20T17:07:36.950Z,7.20
2018-09-20T17:08:35.862Z,6.00
2018-09-20T17:10:28.784Z,7.10
2018-09-20T17:11:28.736Z,11.50
2018-09-20T17:13:22.767Z,7.40
2018-09-20T17:14:21.992Z,6.90
2018-09-20T17:16:15.483Z,5.80
2018-09-20T17:17:15.390Z,7.30
2018-09-20T17:19:08.243Z,7.10
2018-09-20T17:20:08.260Z,8.70
2018-09-20T17:22:01.690Z,7.70
2018-09-20T17:23:01.654Z,6.90
2018-09-20T17:24:54.996Z,11.10
2018-09-20T17:25:54.979Z,9.50
2018-09-20T17:27:48.386Z,9.00
2018-09-20T17:28:48.501Z,8.20
2018-09-20T17:30:42.335Z,7.60
2018-09-20T17:31:42.794Z,6.60
2018-09-20T17:33:38.230Z,6.50
2018-09-20T17:34:36.356Z,8.90
2018-09-20T17:36:29.436Z,8.00
2018-09-20T17:37:29.097Z,7.60
2018-09-20T17:39:22.843Z,7.80
2018-09-20T17:40:22.465Z,6.30
2018-09-20T17:42:16.451Z,6.30
2018-09-20T17:43:15.994Z,7.30
2018-09-20T17:45:09.291Z,8.00
2018-09-20T17:46:09.299Z,7.40
2018-09-20T17:48:02.136Z,10.60
2018-09-20T17:49:02.132Z,7.70
2018-09-20T17:50:55.300Z,10.20
2018-09-20T17:51:55.088Z,8.40
2018-09-20T17:53:48.631Z,12.40
2018-09-20T17:54:48.419Z,8.20
2018-09-20T17:56:42.357Z,7.70
2018-09-20T17:57:41.793Z,8.10
2018-09-20T17:59:35.210Z,7.70
2018-09-20T18:00:35.180Z,10.90
2018-09-20T18:02:28.802Z,9.00
2018-09-20T18:03:28.563Z,8.50
2018-09-20T18:05:21.551Z,9.10
2018-09-20T18:06:21.676Z,12.60
2018-09-20T18:08:14.431Z,9.30
2018-09-20T18:09:14.373Z,7.10
2018-09-20T18:11:07.853Z,10.30
2018-09-20T18:12:07.756Z,11.00
2018-09-20T18:14:01.706Z,8.80
2018-09-20T18:15:01.166Z,8.10
2018-09-20T18:16:55.446Z,8.30
2018-09-20T18:17:54.559Z,9.00
2018-09-20T18:19:48.752Z,8.80
2018-09-20T18:20:47.884Z,6.50
2018-09-20T18:22:40.807Z,6.20
2018-09-20T18:23:41.089Z,7.00
2018-09-20T18:25:34.227Z,13.10
2018-09-20T18:26:34.157Z,13.10
2018-09-20T18:28:28.867Z,12.60
2018-09-20T18:29:28.545Z,9.50
2018-09-20T18:31:21.448Z,11.10
2018-09-20T18:32:21.416Z,8.30
2018-09-20T18:34:15.215Z,7.40
2018-09-20T18:35:15.362Z,9.50
2018-09-20T18:37:07.957Z,9.40
2018-09-20T18:38:07.761Z,8.60
2018-09-20T18:40:00.604Z,12.30
2018-09-20T18:41:00.590Z,8.70
2018-09-20T18:42:54.608Z,9.90
2018-09-20T18:43:53.476Z,11.20
2018-09-20T18:45:46.942Z,7.50
2018-09-20T18:46:47.913Z,6.90
2018-09-20T18:48:40.733Z,7.80
2018-09-20T18:49:40.338Z,4.80
2018-09-20T18:51:34.114Z,10.10
2018-09-20T18:52:33.695Z,12.70